Time;durP1;ratioP1;P1;durP2;ratioP2;P2;SDS_P1;SDS_P2;PMS_P1;PMS_P2;Temp;Humidity;BMP_temperature;BMP_pressure;BME280_temperature;BME280_humidity;BME280_pressure;Samples;Min_cycle;Max_cycle;Signal;HPM_P1;HPM_P2
2024/02/21 00:02:20;;;;;;;27.80;11.75;;;;;;;7.88;100.00;102116.19;5065764;28;20067;-75
2024/02/21 00:04:46;;;;;;;27.60;11.85;;;;;;;7.89;100.00;102124.97;5064703;28;20041;-75
2024/02/21 00:07:11;;;;;;;26.63;11.18;;;;;;;7.93;100.00;102125.13;5066811;28;20029;-76
2024/02/21 00:09:36;;;;;;;28.25;12.10;;;;;;;7.93;100.00;102114.59;5063834;28;20112;-75
2024/02/21 00:12:03;;;;;;;26.63;11.40;;;;;;;7.88;100.00;102112.63;5066557;28;20438;-75
2024/02/21 00:14:28;;;;;;;28.58;11.52;;;;;;;7.82;100.00;102121.19;5063529;28;20437;-78
2024/02/21 00:16:53;;;;;;;28.73;11.60;;;;;;;7.87;100.00;102109.09;5065503;28;20087;-79
2024/02/21 00:19:19;;;;;;;26.95;11.23;;;;;;;7.89;100.00;102112.69;5065540;28;20024;-79
2024/02/21 00:21:44;;;;;;;27.40;11.20;;;;;;;7.91;100.00;102120.66;5064019;28;20035;-78
2024/02/21 00:24:09;;;;;;;26.88;11.20;;;;;;;7.91;100.00;102107.50;5066656;28;20032;-77
2024/02/21 00:26:35;;;;;;;28.38;10.70;;;;;;;7.91;100.00;102105.75;5063384;28;20041;-79
2024/02/21 00:29:00;;;;;;;25.65;10.70;;;;;;;7.91;100.00;102099.59;5064865;28;20028;-79
2024/02/21 00:31:25;;;;;;;27.00;10.60;;;;;;;7.87;100.00;102092.44;5063915;28;20032;-78
2024/02/21 00:33:51;;;;;;;28.20;10.95;;;;;;;7.83;100.00;102081.78;5064651;28;20032;-78
2024/02/21 00:36:16;;;;;;;27.92;10.40;;;;;;;7.75;100.00;102069.19;5066251;28;20028;-79
2024/02/21 00:38:42;;;;;;;27.23;10.73;;;;;;;7.71;100.00;102069.94;5063098;28;20112;-79
2024/02/21 00:41:07;;;;;;;26.13;10.43;;;;;;;7.75;100.00;102063.94;5066804;28;20196;-79
2024/02/21 00:43:33;;;;;;;27.45;10.80;;;;;;;7.60;100.00;102057.28;5063533;28;20383;-79
2024/02/21 00:45:58;;;;;;;26.67;11.35;;;;;;;7.57;100.00;102067.69;5065676;28;20037;-77
2024/02/21 00:48:23;;;;;;;27.02;10.65;;;;;;;7.58;100.00;102050.16;5064508;28;20483;-77
2024/02/21 00:50:49;;;;;;;26.95;10.18;;;;;;;7.57;100.00;102051.91;5064098;28;20079;-78
2024/02/21 00:53:14;;;;;;;27.05;10.27;;;;;;;7.54;100.00;102040.38;5065731;28;20024;-76
2024/02/21 00:55:40;;;;;;;26.13;10.23;;;;;;;7.58;100.00;102045.78;5062946;28;20056;-77
2024/02/21 00:58:05;;;;;;;26.25;10.82;;;;;;;7.57;100.00;102043.09;5066186;28;20124;-76
2024/02/21 01:00:31;;;;;;;26.48;10.98;;;;;;;7.60;100.00;102051.09;5063215;28;20056;-76
2024/02/21 01:02:56;;;;;;;26.58;10.65;;;;;;;7.57;100.00;102053.63;5063336;28;20103;-77
2024/02/21 01:05:22;;;;;;;25.83;10.10;;;;;;;7.63;100.00;102052.13;5064526;28;20024;-76
2024/02/21 01:07:48;;;;;;;28.20;10.52;;;;;;;7.64;100.00;102053.00;5063422;28;20526;-77
2024/02/21 01:10:13;;;;;;;25.15;10.05;;;;;;;7.72;100.00;102045.38;5065898;28;20028;-75
2024/02/21 01:12:38;;;;;;;25.77;10.32;;;;;;;7.71;100.00;102038.34;5062412;28;20419;-76
2024/02/21 01:15:04;;;;;;;24.92;9.82;;;;;;;7.72;100.00;102046.28;5065567;28;20036;-76
2024/02/21 01:17:30;;;;;;;25.90;10.30;;;;;;;7.71;100.00;102030.44;5063345;28;20024;-75
2024/02/21 01:19:55;;;;;;;25.00;9.73;;;;;;;7.70;100.00;102039.16;5062961;28;20537;-75
2024/02/21 01:22:20;;;;;;;24.85;9.88;;;;;;;7.67;100.00;102026.78;5064345;28;20025;-75
2024/02/21 01:24:46;;;;;;;24.10;9.90;;;;;;;7.67;100.00;102022.44;5062856;28;20059;-74
2024/02/21 01:27:11;;;;;;;27.52;9.93;;;;;;;7.66;100.00;102014.50;5065677;28;20032;-75
2024/02/21 01:29:37;;;;;;;23.90;9.70;;;;;;;7.63;100.00;102015.28;5061117;28;20025;-75
2024/02/21 01:32:02;;;;;;;24.20;10.18;;;;;;;7.64;100.00;102016.16;5064898;28;20025;-75
2024/02/21 01:34:27;;;;;;;23.70;9.23;;;;;;;7.67;100.00;102022.44;5063209;28;20025;-75
2024/02/21 01:36:53;;;;;;;25.35;9.68;;;;;;;7.66;100.00;102018.00;5063758;28;20035;-76
2024/02/21 01:39:18;;;;;;;25.08;9.27;;;;;;;7.74;100.00;102015.63;5064278;28;20025;-75
2024/02/21 01:41:43;;;;;;;26.98;9.80;;;;;;;7.73;100.00;102005.94;5061021;28;20080;-76
2024/02/21 01:44:09;;;;;;;25.48;9.70;;;;;;;7.78;100.00;102022.81;5065245;28;20028;-76
2024/02/21 01:46:34;;;;;;;25.65;9.35;;;;;;;7.79;100.00;102005.25;5062031;28;20115;-76
2024/02/21 01:49:01;;;;;;;23.67;9.23;;;;;;;7.77;100.00;102005.22;5064269;28;20055;-75
2024/02/21 01:51:27;;;;;;;24.65;9.13;;;;;;;7.78;100.00;101998.22;5063298;28;20033;-76
2024/02/21 01:53:54;;;;;;;24.02;9.32;;;;;;;7.79;100.00;102000.00;5063048;28;20027;-76
2024/02/21 01:56:20;;;;;;;23.60;9.10;;;;;;;7.78;100.00;101992.97;5063669;28;20020;-75
2024/02/21 01:58:48;;;;;;;23.60;9.23;;;;;;;7.77;100.00;101996.44;5062432;28;20029;-77
2024/02/21 02:01:13;;;;;;;23.48;8.73;;;;;;;7.79;100.00;101995.66;5064577;28;20020;-75
2024/02/21 02:03:39;;;;;;;22.83;8.32;;;;;;;7.85;100.00;102016.03;5061383;28;20509;-76
2024/02/21 02:06:07;;;;;;;24.52;8.93;;;;;;;7.87;100.00;101995.00;5064725;28;20032;-76
2024/02/21 02:08:33;;;;;;;23.67;8.88;;;;;;;7.87;100.00;101993.25;5061874;28;20049;-76
2024/02/21 02:10:59;;;;;;;23.65;8.30;;;;;;;7.84;100.00;101991.41;5062354;28;20072;-79
2024/02/21 02:13:24;;;;;;;22.50;7.95;;;;;;;7.92;100.00;101974.97;5061889;28;20066;-79
2024/02/21 02:15:50;;;;;;;23.83;8.70;;;;;;;7.87;100.00;101974.84;5062549;28;20437;-78
2024/02/21 02:18:17;;;;;;;22.98;7.75;;;;;;;7.83;100.00;101980.84;5064056;28;20119;-78
2024/02/21 02:20:44;;;;;;;22.85;8.02;;;;;;;7.78;100.00;101985.06;5061495;28;20467;-78
2024/02/21 02:23:33;;;;;;;23.05;7.85;;;;;;;7.81;100.00;101977.25;5046735;28;20413;-77
2024/02/21 02:26:00;;;;;;;24.40;8.65;;;;;;;7.82;100.00;101965.88;5062314;28;20035;-76
2024/02/21 02:28:26;;;;;;;22.08;8.00;;;;;;;7.86;100.00;101957.25;5062637;28;20055;-78
2024/02/21 02:30:51;;;;;;;22.50;7.70;;;;;;;7.87;100.00;101943.25;5062487;28;20029;-75
2024/02/21 02:33:17;;;;;;;22.33;7.70;;;;;;;7.85;100.00;101942.31;5063713;28;20493;-79
2024/02/21 02:35:43;;;;;;;21.77;7.65;;;;;;;7.88;100.00;101939.78;5059842;28;20032;-79
2024/02/21 02:38:09;;;;;;;22.90;8.02;;;;;;;7.84;100.00;101936.13;5064525;28;20039;-79
2024/02/21 02:40:35;;;;;;;22.48;7.93;;;;;;;7.78;100.00;101935.94;5061130;28;20108;-79
2024/02/21 02:43:01;;;;;;;24.35;8.00;;;;;;;7.78;100.00;101935.94;5063271;28;20458;-79
2024/02/21 02:45:27;;;;;;;22.45;7.85;;;;;;;7.82;100.00;101937.81;5062354;28;20024;-80
2024/02/21 02:47:56;;;;;;;21.98;7.85;;;;;;;7.78;100.00;101937.69;5062200;28;20033;-79
2024/02/21 02:50:23;;;;;;;22.70;7.72;;;;;;;7.79;100.00;101921.03;5062770;28;20077;-79
2024/02/21 02:52:48;;;;;;;22.10;7.82;;;;;;;7.82;100.00;101926.38;5061395;28;20484;-78
2024/02/21 02:55:13;;;;;;;22.80;7.85;;;;;;;7.74;100.00;101918.25;5062488;28;20115;-78
2024/02/21 02:57:41;;;;;;;21.83;7.90;;;;;;;7.77;100.00;101923.59;5060789;28;20053;-79
2024/02/21 03:00:07;;;;;;;22.10;7.40;;;;;;;7.76;100.00;101928.81;5062922;28;20039;-79
2024/02/21 03:02:33;;;;;;;20.90;7.70;;;;;;;7.73;100.00;101918.19;5060998;28;20524;-79
2024/02/21 03:04:58;;;;;;;21.00;7.40;;;;;;;7.71;100.00;101917.25;5043811;28;20034;-74
2024/02/21 03:07:25;;;;;;;21.50;7.20;;;;;;;7.68;100.00;101913.66;5061433;28;20106;-78
2024/02/21 03:09:50;;;;;;;21.85;7.63;;;;;;;7.74;100.00;101922.63;5061607;28;20021;-78
2024/02/21 03:12:24;;;;;;;21.80;7.32;;;;;;;7.78;100.00;101929.78;5063723;28;20060;-79
2024/02/21 03:14:50;;;;;;;21.48;7.53;;;;;;;7.75;100.00;101913.91;5061705;28;20029;-79
2024/02/21 03:17:15;;;;;;;21.30;7.18;;;;;;;7.77;100.00;101920.97;5063531;28;20384;-79
2024/02/21 03:19:40;;;;;;;22.13;7.00;;;;;;;7.84;100.00;101920.34;5060469;28;20060;-78
2024/02/21 03:22:06;;;;;;;20.85;6.93;;;;;;;7.85;100.00;101897.56;5063877;28;20086;-78
2024/02/21 03:24:31;;;;;;;21.17;7.00;;;;;;;7.84;100.00;101896.63;5061120;28;20041;-75
2024/02/21 03:26:58;;;;;;;21.13;6.80;;;;;;;7.88;100.00;101904.63;5062555;28;20035;-79
2024/02/21 03:29:24;;;;;;;21.38;7.25;;;;;;;7.83;100.00;101889.59;5062352;28;20050;-78
2024/02/21 03:31:49;;;;;;;22.15;7.10;;;;;;;7.77;100.00;101880.59;5059953;28;20029;-78
2024/02/21 03:34:15;;;;;;;21.60;6.95;;;;;;;7.82;100.00;101877.28;5063643;28;20493;-78
2024/02/21 03:36:40;;;;;;;21.20;7.38;;;;;;;7.86;100.00;101878.25;5060301;28;20146;-79
2024/02/21 03:39:05;;;;;;;22.23;6.80;;;;;;;7.83;100.00;101867.63;5063295;28;20128;-78
2024/02/21 03:41:31;;;;;;;21.15;7.57;;;;;;;7.81;100.00;101862.31;5061313;28;20031;-78
2024/02/21 03:43:56;;;;;;;21.65;7.18;;;;;;;7.79;100.00;101868.38;5062017;28;20079;-79
2024/02/21 03:46:21;;;;;;;21.98;7.45;;;;;;;7.82;100.00;101865.84;5062439;28;20032;-76
2024/02/21 03:48:47;;;;;;;21.02;7.80;;;;;;;7.83;100.00;101871.19;5059886;28;20386;-78
2024/02/21 03:51:12;;;;;;;21.67;7.80;;;;;;;7.89;100.00;101865.19;5063965;28;20431;-78
2024/02/21 03:53:38;;;;;;;21.95;7.80;;;;;;;7.86;100.00;101862.47;5056067;28;20028;-79
2024/02/21 03:56:04;;;;;;;21.83;7.90;;;;;;;7.88;100.00;101846.72;5063039;28;20056;-78
2024/02/21 03:58:33;;;;;;;21.08;7.60;;;;;;;7.90;100.00;101845.91;5061392;28;20045;-75
2024/02/21 04:01:02;;;;;;;22.52;8.35;;;;;;;7.87;100.00;101853.72;5062323;28;20029;-77
2024/02/21 04:03:27;;;;;;;23.05;8.43;;;;;;;7.86;100.00;101846.66;5061501;28;20131;-75
2024/02/21 04:05:53;;;;;;;22.08;8.02;;;;;;;7.90;100.00;101850.31;5063144;28;20108;-76
2024/02/21 04:08:18;;;;;;;22.95;8.88;;;;;;;7.93;100.00;101846.00;5065394;28;20024;-75
2024/02/21 04:10:44;;;;;;;22.00;8.35;;;;;;;7.90;100.00;101842.41;5063777;28;20039;-75
2024/02/21 04:13:09;;;;;;;21.83;8.25;;;;;;;7.95;100.00;101841.69;5065832;28;20040;-75
2024/02/21 04:15:35;;;;;;;21.20;8.13;;;;;;;7.89;100.00;101854.66;5063963;28;20032;-74
2024/02/21 04:18:00;;;;;;;23.67;8.55;;;;;;;7.90;100.00;101838.03;5064739;28;20475;-75
2024/02/21 04:20:26;;;;;;;21.75;8.32;;;;;;;7.88;100.00;101844.06;5065087;28;20070;-75
2024/02/21 04:22:51;;;;;;;21.77;8.18;;;;;;;7.89;100.00;101848.50;5064630;28;20495;-75
2024/02/21 04:25:16;;;;;;;23.20;8.15;;;;;;;7.88;100.00;101841.44;5066462;28;20089;-76
2024/02/21 04:27:42;;;;;;;25.02;8.52;;;;;;;7.82;100.00;101847.41;5063244;28;20107;-76
2024/02/21 04:30:08;;;;;;;21.77;7.82;;;;;;;7.79;100.00;101842.97;5065729;28;20044;-75
2024/02/21 04:32:33;;;;;;;22.02;8.23;;;;;;;7.74;100.00;101839.28;5064021;28;20475;-76
2024/02/21 04:34:59;;;;;;;22.27;7.85;;;;;;;7.75;100.00;101842.81;5065267;28;20083;-74
2024/02/21 04:37:24;;;;;;;22.83;8.25;;;;;;;7.75;100.00;101840.19;5065318;28;20487;-79
2024/02/21 04:39:50;;;;;;;22.67;8.20;;;;;;;7.74;100.00;101839.28;5063950;28;20058;-78
2024/02/21 04:42:16;;;;;;;22.48;7.95;;;;;;;7.81;100.00;101829.84;5064873;28;20032;-79
2024/02/21 04:44:41;;;;;;;24.10;8.82;;;;;;;7.78;100.00;101845.56;5063172;28;20033;-79
2024/02/21 04:47:07;;;;;;;23.42;8.98;;;;;;;7.79;100.00;101842.97;5066117;28;20023;-78
2024/02/21 04:49:33;;;;;;;22.38;8.88;;;;;;;7.81;100.00;101830.72;5063656;28;20479;-79
2024/02/21 04:51:58;;;;;;;23.85;9.27;;;;;;;7.82;100.00;101835.16;5065055;28;20039;-78
2024/02/21 04:54:24;;;;;;;24.98;9.80;;;;;;;7.84;100.00;101829.94;5064761;28;20024;-79
2024/02/21 04:56:49;;;;;;;24.42;10.00;;;;;;;7.77;100.00;101830.59;5062278;28;20029;-79
2024/02/21 04:59:14;;;;;;;24.55;9.70;;;;;;;7.76;100.00;101826.16;5066100;28;20032;-79
2024/02/21 05:01:40;;;;;;;23.73;9.23;;;;;;;7.81;100.00;101824.59;5062619;28;20033;-79
2024/02/21 05:04:06;;;;;;;24.75;9.45;;;;;;;7.78;100.00;101819.22;5065512;28;20087;-75
2024/02/21 05:06:31;;;;;;;24.85;9.98;;;;;;;7.81;100.00;101814.06;5063528;28;20048;-78
2024/02/21 05:08:57;;;;;;;24.23;9.93;;;;;;;7.75;100.00;101814.75;5064345;28;20128;-79
2024/02/21 05:11:23;;;;;;;24.83;10.48;;;;;;;7.75;100.00;101817.38;5063899;28;20040;-78
2024/02/21 05:13:48;;;;;;;24.33;10.30;;;;;;;7.74;100.00;101810.31;5062831;28;20384;-79
2024/02/21 05:16:14;;;;;;;24.38;10.27;;;;;;;7.76;100.00;101813.91;5065641;28;20056;-79
2024/02/21 05:18:40;;;;;;;25.77;10.50;;;;;;;7.76;100.00;101806.00;5062523;28;20029;-79
2024/02/21 05:21:06;;;;;;;26.10;10.43;;;;;;;7.71;100.00;101799.69;5065357;28;20498;-78
2024/02/21 05:23:31;;;;;;;25.42;10.48;;;;;;;7.68;100.00;101797.84;5063208;28;20115;-77
2024/02/21 05:25:56;;;;;;;25.42;10.23;;;;;;;7.68;100.00;101792.59;5064132;28;20025;-77
2024/02/21 05:28:22;;;;;;;25.20;10.45;;;;;;;7.66;100.00;101789.03;5064419;28;20075;-77
2024/02/21 05:30:47;;;;;;;25.42;10.07;;;;;;;7.68;100.00;101776.81;5062415;28;20379;-75
2024/02/21 05:33:13;;;;;;;24.88;10.00;;;;;;;7.68;100.00;101776.81;5064439;28;20024;-75
2024/02/21 05:35:38;;;;;;;24.00;9.77;;;;;;;7.69;100.00;101767.19;5062337;28;20443;-76
2024/02/21 05:38:07;;;;;;;24.27;10.02;;;;;;;7.68;100.00;101775.91;5063426;28;20499;-75
2024/02/21 05:40:33;;;;;;;25.02;10.25;;;;;;;7.69;100.00;101769.81;5062932;28;20546;-75
2024/02/21 05:42:58;;;;;;;23.92;9.43;;;;;;;7.67;100.00;101769.78;5063673;28;20120;-75
2024/02/21 05:45:23;;;;;;;24.02;9.63;;;;;;;7.71;100.00;101769.88;5063662;28;20071;-74
2024/02/21 05:47:49;;;;;;;22.83;9.38;;;;;;;7.74;100.00;101764.69;5062897;28;20033;-75
2024/02/21 05:50:15;;;;;;;22.10;9.30;;;;;;;7.73;100.00;101769.03;5063754;28;20079;-76
2024/02/21 05:52:40;;;;;;;24.90;9.15;;;;;;;7.74;100.00;101760.31;5061862;28;20475;-75
2024/02/21 05:55:07;;;;;;;24.33;9.82;;;;;;;7.69;100.00;101740.88;5063416;28;20044;-75
2024/02/21 05:57:32;;;;;;;24.25;9.20;;;;;;;7.75;100.00;101745.44;5061167;28;20040;-75
2024/02/21 05:59:57;;;;;;;23.30;8.98;;;;;;;7.77;100.00;101744.59;5063366;28;20418;-76
2024/02/21 06:02:23;;;;;;;22.58;8.75;;;;;;;7.76;100.00;101739.31;5063382;28;20049;-75
2024/02/21 06:04:48;;;;;;;23.48;9.02;;;;;;;7.76;100.00;101752.47;5061834;28;20040;-75
2024/02/21 06:07:13;;;;;;;22.05;8.95;;;;;;;7.78;100.00;101735.00;5065185;28;20063;-75
2024/02/21 06:09:39;;;;;;;24.50;9.25;;;;;;;7.76;100.00;101734.03;5061340;28;20037;-75
2024/02/21 06:12:04;;;;;;;23.15;8.90;;;;;;;7.82;100.00;101731.56;5063964;28;20028;-74
2024/02/21 06:14:30;;;;;;;23.50;9.13;;;;;;;7.77;100.00;101718.28;5062717;28;20044;-76
2024/02/21 06:16:55;;;;;;;23.50;8.70;;;;;;;7.79;100.00;101710.44;5062662;28;20033;-76
2024/02/21 06:19:20;;;;;;;22.48;9.15;;;;;;;7.75;100.00;101713.84;5063731;28;20111;-79
2024/02/21 06:21:45;;;;;;;23.00;9.05;;;;;;;7.75;100.00;101705.94;5061480;28;20472;-79
2024/02/21 06:24:12;;;;;;;23.50;9.35;;;;;;;7.72;100.00;101719.91;5064551;28;20479;-79
2024/02/21 06:26:37;;;;;;;24.60;9.20;;;;;;;7.70;100.00;101711.06;5061453;28;20035;-79
2024/02/21 06:29:03;;;;;;;23.67;9.07;;;;;;;7.68;100.00;101726.78;5062840;28;20029;-78
2024/02/21 06:31:28;;;;;;;24.25;9.32;;;;;;;7.72;100.00;101719.91;5062308;28;20029;-78
2024/02/21 06:33:54;;;;;;;23.20;9.20;;;;;;;7.70;100.00;101723.34;5062312;28;20036;-77
2024/02/21 06:36:19;;;;;;;22.75;9.40;;;;;;;7.64;100.00;101731.94;5063712;28;20028;-76
2024/02/21 06:38:44;;;;;;;23.92;9.85;;;;;;;7.62;100.00;101726.63;5060834;28;20025;-77
2024/02/21 06:41:19;;;;;;;24.33;9.88;;;;;;;7.68;100.00;101718.91;5057043;28;20024;-76
2024/02/21 06:43:46;;;;;;;24.10;9.43;;;;;;;7.70;100.00;101721.56;5057580;28;20507;-79
2024/02/21 06:46:12;;;;;;;24.48;10.27;;;;;;;7.63;100.00;101730.13;5062832;28;20029;-78
2024/02/21 06:48:37;;;;;;;24.23;9.95;;;;;;;7.63;100.00;101725.78;5060118;28;20025;-78
2024/02/21 06:51:03;;;;;;;24.10;9.73;;;;;;;7.65;100.00;101737.22;5063244;28;20032;-79
2024/02/21 06:53:29;;;;;;;24.30;10.02;;;;;;;7.64;100.00;101732.81;5062087;28;20044;-76
2024/02/21 06:55:54;;;;;;;24.05;9.93;;;;;;;7.66;100.00;101723.25;5062165;28;20059;-79
2024/02/21 06:58:20;;;;;;;24.33;9.80;;;;;;;7.67;100.00;101722.41;5063436;28;20111;-78
2024/02/21 07:00:45;;;;;;;24.17;10.23;;;;;;;7.68;100.00;101729.44;5060718;28;20464;-79
2024/02/21 07:03:10;;;;;;;23.08;10.13;;;;;;;7.65;100.00;101729.34;5063993;28;20048;-79
2024/02/21 07:05:36;;;;;;;25.35;11.10;;;;;;;7.58;100.00;101713.31;5059714;28;20029;-79
2024/02/21 07:08:03;;;;;;;25.25;10.30;;;;;;;7.64;100.00;101724.91;5062847;28;20492;-79
2024/02/21 07:10:28;;;;;;;25.15;10.00;;;;;;;7.67;100.00;101724.13;5062282;28;20479;-78
2024/02/21 07:12:54;;;;;;;25.55;10.60;;;;;;;7.65;100.00;101717.94;5062063;28;20029;-76
2024/02/21 07:15:20;;;;;;;25.58;10.77;;;;;;;7.67;100.00;101710.97;5063498;28;20029;-78
2024/02/21 07:17:45;;;;;;;25.30;10.27;;;;;;;7.65;100.00;101708.28;5060536;28;20044;-78
2024/02/21 07:20:11;;;;;;;24.80;10.68;;;;;;;7.64;100.00;101713.50;5064135;28;20139;-78
2024/02/21 07:22:36;;;;;;;24.30;10.80;;;;;;;7.70;100.00;101704.91;5060956;28;20060;-78
2024/02/21 07:25:02;;;;;;;27.33;10.88;;;;;;;7.72;100.00;101705.84;5062756;28;20498;-78
2024/02/21 07:27:30;;;;;;;24.45;10.60;;;;;;;7.70;100.00;101711.06;5062363;28;20402;-78
2024/02/21 07:29:56;;;;;;;24.83;10.77;;;;;;;7.68;100.00;101699.59;5061848;28;20070;-79
2024/02/21 07:32:21;;;;;;;24.77;10.90;;;;;;;7.78;100.00;101690.25;5063118;28;20029;-78
2024/02/21 07:34:46;;;;;;;25.08;10.48;;;;;;;7.78;100.00;101682.34;5059349;28;20044;-73
2024/02/21 07:37:12;;;;;;;32.40;10.88;;;;;;;7.78;100.00;101684.97;5062821;28;20032;-74
2024/02/21 07:39:38;;;;;;;23.42;10.25;;;;;;;7.78;100.00;101682.34;5061110;28;20035;-74
2024/02/21 07:42:04;;;;;;;24.80;10.70;;;;;;;7.76;100.00;101678.75;5065373;28;20029;-73
2024/02/21 07:44:31;;;;;;;24.38;10.05;;;;;;;7.82;100.00;101668.41;5065794;28;20036;-73
2024/02/21 07:46:56;;;;;;;23.95;10.30;;;;;;;7.83;100.00;101670.19;5065465;28;20033;-74
2024/02/21 07:49:22;;;;;;;23.80;10.00;;;;;;;7.84;100.00;101661.47;5066562;28;20068;-74
2024/02/21 07:51:47;;;;;;;24.60;10.25;;;;;;;7.87;100.00;101647.50;5064590;28;20116;-75
2024/02/21 07:54:13;;;;;;;23.98;10.52;;;;;;;7.91;100.00;101641.47;5067321;28;20029;-74
2024/02/21 07:56:38;;;;;;;24.90;10.73;;;;;;;7.91;100.00;101652.88;5064306;28;20036;-74
2024/02/21 07:59:03;;;;;;;25.13;10.75;;;;;;;7.91;100.00;101645.00;5066744;28;20500;-74
2024/02/21 08:01:29;;;;;;;25.50;11.07;;;;;;;7.93;100.00;101635.38;5047433;28;20052;-74
2024/02/21 08:03:54;;;;;;;23.20;10.50;;;;;;;7.93;100.00;101645.91;5063093;28;20057;-74
2024/02/21 08:06:19;;;;;;;23.45;10.77;;;;;;;7.94;100.00;101642.44;5065345;28;20025;-74
2024/02/21 08:08:45;;;;;;;24.00;11.07;;;;;;;7.95;100.00;101641.59;5063878;28;20379;-74
2024/02/21 08:11:10;;;;;;;23.60;9.82;;;;;;;7.98;100.00;101633.78;5061502;28;20070;-73
2024/02/21 08:13:35;;;;;;;24.25;10.43;;;;;;;8.03;100.00;101631.28;5063357;28;20037;-74
2024/02/21 08:16:01;;;;;;;25.08;10.30;;;;;;;8.05;100.00;101623.41;5064995;28;20036;-74
2024/02/21 08:18:27;;;;;;;23.77;10.32;;;;;;;8.00;100.00;101626.81;5064152;28;20043;-74
2024/02/21 08:20:52;;;;;;;24.50;10.10;;;;;;;8.07;100.00;101625.25;5063505;28;20079;-74
2024/02/21 08:23:19;;;;;;;22.10;9.52;;;;;;;8.08;100.00;101610.31;5066340;28;20032;-74
2024/02/21 08:25:44;;;;;;;23.52;9.60;;;;;;;8.13;100.00;101603.44;5063350;28;20453;-74
2024/02/21 08:28:09;;;;;;;23.15;9.27;;;;;;;8.18;100.00;101604.44;5065902;28;20063;-73
2024/02/21 08:30:35;;;;;;;21.25;8.60;;;;;;;8.20;100.00;101605.41;5062648;28;20120;-74
2024/02/21 08:33:00;;;;;;;21.92;8.82;;;;;;;8.19;100.00;101595.69;5064998;28;20107;-75
2024/02/21 08:35:25;;;;;;;21.42;8.48;;;;;;;8.22;100.00;101592.25;5065423;28;20032;-74
2024/02/21 08:37:51;;;;;;;22.02;8.40;;;;;;;8.20;100.00;101593.09;5063482;28;20418;-74
2024/02/21 08:40:21;;;;;;;21.73;8.88;;;;;;;8.27;100.00;101572.19;5065442;28;20029;-78
2024/02/21 08:42:46;;;;;;;22.75;8.32;;;;;;;8.25;100.00;101574.78;5059648;28;20413;-79
2024/02/21 08:45:13;;;;;;;20.77;8.15;;;;;;;8.35;100.00;101575.91;5066135;28;20066;-78
2024/02/21 08:47:41;;;;;;;20.48;7.93;;;;;;;8.41;100.00;101580.44;5063798;28;20029;-77
2024/02/21 08:50:09;;;;;;;21.42;8.10;;;;;;;8.47;100.00;101570.09;5065390;28;20070;-78
2024/02/21 08:52:34;;;;;;;21.15;7.72;;;;;;;8.47;100.00;101564.81;5062129;28;20039;-78
2024/02/21 08:55:00;;;;;;;20.10;7.95;;;;;;;8.48;100.00;101551.69;5064664;28;20407;-78
2024/02/21 08:57:25;;;;;;;19.98;7.40;;;;;;;8.55;100.00;101544.81;5065258;28;20423;-78
2024/02/21 08:59:51;;;;;;;19.98;8.10;;;;;;;8.50;100.00;101543.81;5063201;28;20029;-78
2024/02/21 09:02:16;;;;;;;19.42;8.00;;;;;;;8.43;100.00;101536.56;5064887;28;20402;-77
2024/02/21 09:04:43;;;;;;;20.40;8.25;;;;;;;8.41;100.00;101554.09;5062625;28;20365;-78
2024/02/21 09:07:09;;;;;;;20.88;8.60;;;;;;;8.38;100.00;101554.91;5065630;28;20040;-78
2024/02/21 09:09:34;;;;;;;20.88;8.55;;;;;;;8.35;100.00;101552.19;5064052;28;20032;-77
2024/02/21 09:12:05;;;;;;;21.10;9.02;;;;;;;8.26;100.00;101550.22;5063217;28;20029;-78
2024/02/21 09:14:32;;;;;;;19.60;9.07;;;;;;;8.19;100.00;101550.94;5064077;28;20032;-78
2024/02/21 09:16:57;;;;;;;20.88;9.10;;;;;;;8.08;100.00;101544.47;5063933;28;20029;-77
2024/02/21 09:19:22;;;;;;;20.77;9.63;;;;;;;7.98;100.00;101543.34;5065063;28;20108;-78
2024/02/21 09:21:48;;;;;;;21.00;10.07;;;;;;;7.91;100.00;101552.84;5061114;28;20064;-78
2024/02/21 09:24:13;;;;;;;22.65;11.27;;;;;;;7.76;100.00;101540.16;5058555;28;20033;-75
2024/02/21 09:26:39;;;;;;;21.90;10.95;;;;;;;7.78;100.00;101542.84;5064976;28;20558;-74
2024/02/21 09:29:04;;;;;;;23.70;12.27;;;;;;;7.70;100.00;101541.72;5062524;28;20086;-75
2024/02/21 09:31:29;;;;;;;24.35;11.88;;;;;;;7.76;100.00;101540.16;5064143;28;20025;-74
2024/02/21 09:33:55;;;;;;;22.83;12.13;;;;;;;7.71;100.00;101552.31;5064693;28;20032;-74
2024/02/21 09:36:21;;;;;;;24.00;11.90;;;;;;;7.77;100.00;101528.75;5062306;28;20033;-75
2024/02/21 09:38:46;;;;;;;22.25;11.52;;;;;;;7.86;100.00;101528.13;5065469;28;20032;-74
2024/02/21 09:41:17;;;;;;;23.98;12.30;;;;;;;7.81;100.00;101521.84;5062369;28;20083;-74
2024/02/21 09:43:45;;;;;;;23.42;11.98;;;;;;;7.87;100.00;101514.13;5065574;28;20510;-74
2024/02/21 09:46:17;;;;;;;22.63;11.75;;;;;;;7.92;100.00;101496.72;5062339;28;20032;-74
2024/02/21 09:49:09;;;;;;;23.73;12.25;;;;;;;7.96;100.00;101493.28;5065051;28;20368;-74
2024/02/21 09:51:38;;;;;;;22.92;11.60;;;;;;;7.99;100.00;101482.84;5062935;28;20029;-74
2024/02/21 09:54:04;;;;;;;23.52;11.85;;;;;;;8.06;100.00;101477.72;5062868;28;20020;-74
2024/02/21 09:56:29;;;;;;;22.88;11.13;;;;;;;8.08;100.00;101479.56;5063448;28;20087;-74
2024/02/21 09:58:56;;;;;;;23.52;10.90;;;;;;;8.17;100.00;101469.25;5064151;28;20051;-74
2024/02/21 10:01:21;;;;;;;23.52;11.43;;;;;;;8.19;100.00;101454.34;5061679;28;20037;-74
2024/02/21 10:03:47;;;;;;;22.23;10.73;;;;;;;8.29;100.00;101460.72;5064022;28;20056;-74
2024/02/21 10:06:13;;;;;;;22.90;11.20;;;;;;;8.37;100.00;101450.38;5060247;28;20064;-74
2024/02/21 10:08:38;;;;;;;23.70;10.80;;;;;;;8.48;100.00;101437.50;5064018;28;20085;-74
2024/02/21 10:11:03;;;;;;;22.88;10.75;;;;;;;8.55;100.00;101431.50;5062937;28;20031;-73
2024/02/21 10:13:29;;;;;;;22.75;10.30;;;;;;;8.59;100.00;101427.16;5061458;28;20025;-75
2024/02/21 10:16:05;;;;;;;21.50;9.48;;;;;;;8.67;100.00;101426.47;5063819;28;20471;-74
2024/02/21 10:18:31;;;;;;;22.33;8.93;;;;;;;8.64;100.00;101417.63;5063013;28;20086;-74
2024/02/21 10:21:04;;;;;;;21.55;9.15;;;;;;;8.67;100.00;101408.03;5063712;28;20055;-74
2024/02/21 10:23:40;;;;;;;22.13;8.88;;;;;;;8.70;100.00;101394.91;5062637;28;20043;-74
2024/02/21 10:26:07;;;;;;;21.35;8.70;;;;;;;8.72;100.00;101376.50;5062200;28;20168;-73
2024/02/21 10:28:32;;;;;;;20.83;8.13;;;;;;;8.73;100.00;101379.16;5060685;28;20025;-74
2024/02/21 10:30:58;;;;;;;20.75;7.90;;;;;;;8.75;100.00;101376.53;5062669;28;20043;-74
2024/02/21 10:33:25;;;;;;;20.92;7.30;;;;;;;8.85;100.00;101359.19;5061986;28;20025;-74
2024/02/21 10:35:51;;;;;;;19.23;6.75;;;;;;;8.86;100.00;101353.94;5061795;28;20029;-74
2024/02/21 10:38:16;;;;;;;20.08;7.10;;;;;;;8.91;100.00;101332.91;5064030;28;20169;-74
2024/02/21 10:40:42;;;;;;;20.70;7.03;;;;;;;8.96;100.00;101322.47;5060926;28;20031;-74
2024/02/21 10:43:12;;;;;;;21.42;7.22;;;;;;;8.99;100.00;101302.31;5064157;28;20410;-73
2024/02/21 10:45:39;;;;;;;20.92;7.13;;;;;;;9.03;100.00;101303.28;5060995;28;20553;-74
2024/02/21 10:48:28;;;;;;;20.40;7.07;;;;;;;9.18;100.00;101284.19;5063516;28;20032;-74
2024/02/21 10:51:00;;;;;;;21.33;6.70;;;;;;;9.22;100.00;101278.09;5059969;28;20104;-74
2024/02/21 10:53:46;;;;;;;20.03;7.13;;;;;;;9.26;100.00;101293.09;5062762;28;20036;-74
2024/02/21 10:56:21;;;;;;;19.23;6.32;;;;;;;9.26;100.00;101303.66;5056789;28;20037;-74
2024/02/21 10:58:48;;;;;;;19.67;6.38;;;;;;;9.25;100.00;101288.72;5058087;28;20027;-74
2024/02/21 11:01:15;;;;;;;19.55;6.40;;;;;;;9.26;100.00;101303.66;5064035;28;20029;-74
2024/02/21 11:03:43;;;;;;;19.27;6.30;;;;;;;9.24;100.00;101300.13;5056528;28;20128;-78
2024/02/21 11:06:11;;;;;;;18.17;6.25;;;;;;;9.23;100.00;101300.97;5064112;28;20029;-78
2024/02/21 11:08:36;;;;;;;19.20;6.60;;;;;;;9.25;100.00;101299.25;5054636;28;20139;-78
2024/02/21 11:11:02;;;;;;;21.45;6.60;;;;;;;9.23;100.00;101295.69;5063007;28;20130;-77